sensor_id;sensor_type;location;lat;lon;timestamp;P1;durP1;ratioP1;P2;durP2;ratioP2
61962;SDS011;47927;42.646;23.096;2023-01-25T00:00:39;6.30;;;2.95;;
61962;SDS011;47927;42.646;23.096;2023-01-25T00:03:04;7.20;;;3.45;;
61962;SDS011;47927;42.646;23.096;2023-01-25T00:05:30;6.22;;;2.92;;
61962;SDS011;47927;42.646;23.096;2023-01-25T00:07:55;6.18;;;2.97;;
61962;SDS011;47927;42.646;23.096;2023-01-25T00:10:22;6.78;;;3.72;;
61962;SDS011;47927;42.646;23.096;2023-01-25T00:12:47;6.13;;;3.17;;
61962;SDS011;47927;42.646;23.096;2023-01-25T00:15:13;5.15;;;2.83;;
61962;SDS011;47927;42.646;23.096;2023-01-25T00:17:38;6.45;;;2.83;;
61962;SDS011;47927;42.646;23.096;2023-01-25T00:20:04;8.48;;;3.22;;
61962;SDS011;47927;42.646;23.096;2023-01-25T00:22:30;6.35;;;3.50;;
61962;SDS011;47927;42.646;23.096;2023-01-25T00:24:56;7.68;;;3.33;;
61962;SDS011;47927;42.646;23.096;2023-01-25T00:27:21;8.07;;;4.20;;
61962;SDS011;47927;42.646;23.096;2023-01-25T00:29:47;6.88;;;3.50;;
61962;SDS011;47927;42.646;23.096;2023-01-25T00:34:48;9.30;;;3.53;;
61962;SDS011;47927;42.646;23.096;2023-01-25T00:40:04;5.97;;;3.30;;
61962;SDS011;47927;42.646;23.096;2023-01-25T00:42:30;4.80;;;2.60;;
61962;SDS011;47927;42.646;23.096;2023-01-25T00:44:56;6.18;;;2.80;;
61962;SDS011;47927;42.646;23.096;2023-01-25T00:47:21;4.72;;;2.60;;
61962;SDS011;47927;42.646;23.096;2023-01-25T00:49:47;5.35;;;2.90;;
61962;SDS011;47927;42.646;23.096;2023-01-25T00:52:13;7.75;;;3.90;;
61962;SDS011;47927;42.646;23.096;2023-01-25T00:54:39;9.10;;;4.30;;
61962;SDS011;47927;42.646;23.096;2023-01-25T00:57:06;7.35;;;3.97;;
61962;SDS011;47927;42.646;23.096;2023-01-25T00:59:32;8.98;;;5.07;;
61962;SDS011;47927;42.646;23.096;2023-01-25T01:01:59;10.27;;;5.57;;
61962;SDS011;47927;42.646;23.096;2023-01-25T01:04:27;9.57;;;5.07;;
61962;SDS011;47927;42.646;23.096;2023-01-25T01:06:52;8.68;;;4.07;;
61962;SDS011;47927;42.646;23.096;2023-01-25T01:09:19;4.30;;;2.35;;
61962;SDS011;47927;42.646;23.096;2023-01-25T01:11:46;5.80;;;2.53;;
61962;SDS011;47927;42.646;23.096;2023-01-25T01:14:12;5.00;;;2.88;;
61962;SDS011;47927;42.646;23.096;2023-01-25T01:16:38;5.10;;;2.33;;
61962;SDS011;47927;42.646;23.096;2023-01-25T01:19:03;6.57;;;3.22;;
61962;SDS011;47927;42.646;23.096;2023-01-25T01:21:29;6.13;;;3.15;;
61962;SDS011;47927;42.646;23.096;2023-01-25T01:23:55;5.47;;;2.67;;
61962;SDS011;47927;42.646;23.096;2023-01-25T01:26:21;4.97;;;2.22;;
61962;SDS011;47927;42.646;23.096;2023-01-25T01:28:47;5.70;;;2.65;;
61962;SDS011;47927;42.646;23.096;2023-01-25T01:31:14;5.22;;;2.45;;
61962;SDS011;47927;42.646;23.096;2023-01-25T01:33:49;5.93;;;2.92;;
61962;SDS011;47927;42.646;23.096;2023-01-25T01:36:17;4.68;;;2.67;;
61962;SDS011;47927;42.646;23.096;2023-01-25T01:38:44;5.50;;;2.72;;
61962;SDS011;47927;42.646;23.096;2023-01-25T01:41:10;4.18;;;2.22;;
61962;SDS011;47927;42.646;23.096;2023-01-25T01:43:37;5.47;;;2.55;;
61962;SDS011;47927;42.646;23.096;2023-01-25T01:54:24;7.20;;;2.45;;
61962;SDS011;47927;42.646;23.096;2023-01-25T01:59:45;5.78;;;2.58;;
61962;SDS011;47927;42.646;23.096;2023-01-25T02:02:17;4.95;;;2.45;;
61962;SDS011;47927;42.646;23.096;2023-01-25T02:04:43;4.03;;;2.25;;
61962;SDS011;47927;42.646;23.096;2023-01-25T02:07:18;5.35;;;2.28;;
61962;SDS011;47927;42.646;23.096;2023-01-25T02:09:49;3.88;;;2.15;;
61962;SDS011;47927;42.646;23.096;2023-01-25T02:12:15;3.75;;;1.83;;
61962;SDS011;47927;42.646;23.096;2023-01-25T02:14:47;6.07;;;2.72;;
61962;SDS011;47927;42.646;23.096;2023-01-25T02:17:21;5.50;;;3.17;;
61962;SDS011;47927;42.646;23.096;2023-01-25T02:19:57;5.03;;;2.45;;
61962;SDS011;47927;42.646;23.096;2023-01-25T02:22:29;6.43;;;3.22;;
61962;SDS011;47927;42.646;23.096;2023-01-25T02:27:33;6.43;;;2.33;;
61962;SDS011;47927;42.646;23.096;2023-01-25T02:30:03;3.85;;;1.67;;
61962;SDS011;47927;42.646;23.096;2023-01-25T02:32:30;3.40;;;1.80;;
61962;SDS011;47927;42.646;23.096;2023-01-25T02:34:56;3.95;;;1.80;;
61962;SDS011;47927;42.646;23.096;2023-01-25T02:37:22;4.00;;;1.77;;
61962;SDS011;47927;42.646;23.096;2023-01-25T02:39:49;5.93;;;1.88;;
61962;SDS011;47927;42.646;23.096;2023-01-25T02:42:15;4.05;;;2.03;;
61962;SDS011;47927;42.646;23.096;2023-01-25T02:44:41;4.65;;;2.20;;
61962;SDS011;47927;42.646;23.096;2023-01-25T02:47:07;5.00;;;2.90;;
61962;SDS011;47927;42.646;23.096;2023-01-25T02:49:34;4.75;;;2.25;;
61962;SDS011;47927;42.646;23.096;2023-01-25T02:52:00;4.57;;;2.05;;
61962;SDS011;47927;42.646;23.096;2023-01-25T02:54:27;4.78;;;2.15;;
61962;SDS011;47927;42.646;23.096;2023-01-25T02:56:54;4.65;;;1.77;;
61962;SDS011;47927;42.646;23.096;2023-01-25T02:59:22;5.07;;;2.60;;
61962;SDS011;47927;42.646;23.096;2023-01-25T03:01:51;3.35;;;1.52;;
61962;SDS011;47927;42.646;23.096;2023-01-25T03:04:16;5.97;;;2.25;;
61962;SDS011;47927;42.646;23.096;2023-01-25T03:06:42;3.60;;;1.60;;
61962;SDS011;47927;42.646;23.096;2023-01-25T03:09:08;4.13;;;2.20;;
61962;SDS011;47927;42.646;23.096;2023-01-25T03:11:37;4.43;;;2.03;;
61962;SDS011;47927;42.646;23.096;2023-01-25T03:14:03;3.38;;;1.77;;
61962;SDS011;47927;42.646;23.096;2023-01-25T03:16:29;3.95;;;1.80;;
61962;SDS011;47927;42.646;23.096;2023-01-25T03:18:56;6.22;;;2.30;;
61962;SDS011;47927;42.646;23.096;2023-01-25T03:21:22;2.92;;;1.60;;
61962;SDS011;47927;42.646;23.096;2023-01-25T03:23:58;4.20;;;1.60;;
61962;SDS011;47927;42.646;23.096;2023-01-25T03:26:31;11.15;;;4.15;;
61962;SDS011;47927;42.646;23.096;2023-01-25T03:29:19;6.72;;;2.80;;
61962;SDS011;47927;42.646;23.096;2023-01-25T03:31:47;6.60;;;2.92;;
61962;SDS011;47927;42.646;23.096;2023-01-25T03:34:13;7.30;;;2.58;;
61962;SDS011;47927;42.646;23.096;2023-01-25T03:36:40;4.47;;;1.60;;
61962;SDS011;47927;42.646;23.096;2023-01-25T03:39:06;4.57;;;2.20;;
61962;SDS011;47927;42.646;23.096;2023-01-25T03:41:37;3.95;;;1.77;;
61962;SDS011;47927;42.646;23.096;2023-01-25T03:44:07;4.25;;;2.03;;
61962;SDS011;47927;42.646;23.096;2023-01-25T03:46:39;4.47;;;2.10;;
61962;SDS011;47927;42.646;23.096;2023-01-25T03:49:05;4.88;;;2.53;;
61962;SDS011;47927;42.646;23.096;2023-01-25T03:51:32;3.90;;;2.10;;
61962;SDS011;47927;42.646;23.096;2023-01-25T03:53:58;4.63;;;1.85;;
61962;SDS011;47927;42.646;23.096;2023-01-25T03:56:24;3.95;;;1.75;;
61962;SDS011;47927;42.646;23.096;2023-01-25T03:58:57;4.47;;;1.92;;
61962;SDS011;47927;42.646;23.096;2023-01-25T04:01:22;3.45;;;1.40;;
61962;SDS011;47927;42.646;23.096;2023-01-25T04:03:48;3.70;;;1.60;;
61962;SDS011;47927;42.646;23.096;2023-01-25T04:06:13;4.28;;;2.00;;
61962;SDS011;47927;42.646;23.096;2023-01-25T04:08:39;4.15;;;1.83;;
61962;SDS011;47927;42.646;23.096;2023-01-25T04:11:06;4.43;;;1.80;;
61962;SDS011;47927;42.646;23.096;2023-01-25T04:13:33;3.45;;;1.48;;
61962;SDS011;47927;42.646;23.096;2023-01-25T04:16:01;3.70;;;1.75;;
61962;SDS011;47927;42.646;23.096;2023-01-25T04:18:47;4.00;;;1.83;;
61962;SDS011;47927;42.646;23.096;2023-01-25T04:21:13;3.83;;;1.80;;
61962;SDS011;47927;42.646;23.096;2023-01-25T04:23:39;3.88;;;1.70;;
61962;SDS011;47927;42.646;23.096;2023-01-25T04:26:05;3.78;;;1.77;;
61962;SDS011;47927;42.646;23.096;2023-01-25T04:28:32;3.63;;;1.75;;
61962;SDS011;47927;42.646;23.096;2023-01-25T04:30:59;2.67;;;1.40;;
61962;SDS011;47927;42.646;23.096;2023-01-25T04:33:32;3.03;;;1.48;;
61962;SDS011;47927;42.646;23.096;2023-01-25T04:35:58;8.68;;;3.08;;
61962;SDS011;47927;42.646;23.096;2023-01-25T04:38:24;5.55;;;2.00;;
61962;SDS011;47927;42.646;23.096;2023-01-25T04:40:51;3.75;;;1.30;;
61962;SDS011;47927;42.646;23.096;2023-01-25T04:43:17;3.90;;;1.65;;
61962;SDS011;47927;42.646;23.096;2023-01-25T04:45:44;4.28;;;2.30;;
61962;SDS011;47927;42.646;23.096;2023-01-25T04:48:17;2.05;;;1.08;;
61962;SDS011;47927;42.646;23.096;2023-01-25T04:50:48;2.85;;;1.17;;
61962;SDS011;47927;42.646;23.096;2023-01-25T04:53:15;4.10;;;1.50;;
61962;SDS011;47927;42.646;23.096;2023-01-25T04:55:45;4.20;;;2.13;;
61962;SDS011;47927;42.646;23.096;2023-01-25T04:58:12;4.18;;;2.03;;
61962;SDS011;47927;42.646;23.096;2023-01-25T05:00:39;4.70;;;1.88;;
61962;SDS011;47927;42.646;23.096;2023-01-25T05:03:05;3.72;;;1.70;;
61962;SDS011;47927;42.646;23.096;2023-01-25T05:05:30;4.50;;;2.38;;
61962;SDS011;47927;42.646;23.096;2023-01-25T05:07:58;4.53;;;2.60;;
61962;SDS011;47927;42.646;23.096;2023-01-25T05:10:23;4.18;;;1.92;;
61962;SDS011;47927;42.646;23.096;2023-01-25T05:13:09;5.47;;;2.25;;
61962;SDS011;47927;42.646;23.096;2023-01-25T05:15:36;4.20;;;2.05;;
61962;SDS011;47927;42.646;23.096;2023-01-25T05:18:02;6.43;;;2.67;;
61962;SDS011;47927;42.646;23.096;2023-01-25T05:20:29;6.32;;;2.45;;
61962;SDS011;47927;42.646;23.096;2023-01-25T05:22:54;3.72;;;2.05;;
61962;SDS011;47927;42.646;23.096;2023-01-25T05:25:20;4.45;;;1.65;;
61962;SDS011;47927;42.646;23.096;2023-01-25T05:28:05;4.65;;;2.17;;
61962;SDS011;47927;42.646;23.096;2023-01-25T05:31:02;4.28;;;2.00;;
61962;SDS011;47927;42.646;23.096;2023-01-25T05:33:29;4.57;;;2.25;;
61962;SDS011;47927;42.646;23.096;2023-01-25T05:35:55;3.22;;;1.67;;
61962;SDS011;47927;42.646;23.096;2023-01-25T05:38:23;5.20;;;1.83;;
61962;SDS011;47927;42.646;23.096;2023-01-25T05:40:49;3.67;;;1.92;;
61962;SDS011;47927;42.646;23.096;2023-01-25T05:43:15;3.70;;;1.60;;
61962;SDS011;47927;42.646;23.096;2023-01-25T05:45:40;4.40;;;1.95;;
61962;SDS011;47927;42.646;23.096;2023-01-25T05:48:07;3.80;;;2.05;;
61962;SDS011;47927;42.646;23.096;2023-01-25T05:50:32;6.30;;;2.40;;
61962;SDS011;47927;42.646;23.096;2023-01-25T05:53:12;6.22;;;2.72;;
61962;SDS011;47927;42.646;23.096;2023-01-25T05:55:38;5.28;;;2.42;;
61962;SDS011;47927;42.646;23.096;2023-01-25T05:58:08;5.63;;;2.70;;
61962;SDS011;47927;42.646;23.096;2023-01-25T06:00:33;5.25;;;2.42;;
61962;SDS011;47927;42.646;23.096;2023-01-25T06:03:00;5.00;;;2.60;;
61962;SDS011;47927;42.646;23.096;2023-01-25T06:05:26;6.25;;;2.83;;
61962;SDS011;47927;42.646;23.096;2023-01-25T06:07:52;6.00;;;2.75;;
61962;SDS011;47927;42.646;23.096;2023-01-25T06:10:21;5.43;;;2.42;;
61962;SDS011;47927;42.646;23.096;2023-01-25T06:12:48;5.15;;;2.53;;
61962;SDS011;47927;42.646;23.096;2023-01-25T06:15:13;5.25;;;2.05;;
61962;SDS011;47927;42.646;23.096;2023-01-25T06:17:39;5.43;;;2.58;;
61962;SDS011;47927;42.646;23.096;2023-01-25T06:20:25;6.28;;;2.58;;
61962;SDS011;47927;42.646;23.096;2023-01-25T06:23:05;6.30;;;2.97;;
61962;SDS011;47927;42.646;23.096;2023-01-25T06:25:31;8.13;;;3.75;;
61962;SDS011;47927;42.646;23.096;2023-01-25T06:27:56;7.85;;;3.97;;
61962;SDS011;47927;42.646;23.096;2023-01-25T06:30:22;8.00;;;4.00;;
61962;SDS011;47927;42.646;23.096;2023-01-25T06:32:47;8.30;;;4.10;;
61962;SDS011;47927;42.646;23.096;2023-01-25T06:35:14;5.25;;;2.90;;
61962;SDS011;47927;42.646;23.096;2023-01-25T06:37:40;5.03;;;2.47;;
61962;SDS011;47927;42.646;23.096;2023-01-25T06:40:06;4.85;;;2.63;;
61962;SDS011;47927;42.646;23.096;2023-01-25T06:42:32;8.85;;;5.13;;
61962;SDS011;47927;42.646;23.096;2023-01-25T06:44:58;11.48;;;4.68;;
61962;SDS011;47927;42.646;23.096;2023-01-25T06:47:23;8.18;;;4.82;;
61962;SDS011;47927;42.646;23.096;2023-01-25T06:49:48;8.98;;;5.25;;
61962;SDS011;47927;42.646;23.096;2023-01-25T06:52:14;9.52;;;5.00;;
61962;SDS011;47927;42.646;23.096;2023-01-25T06:54:40;9.50;;;4.32;;
61962;SDS011;47927;42.646;23.096;2023-01-25T06:57:05;8.32;;;4.50;;
61962;SDS011;47927;42.646;23.096;2023-01-25T06:59:33;7.53;;;4.13;;
61962;SDS011;47927;42.646;23.096;2023-01-25T07:01:58;4.85;;;2.78;;
61962;SDS011;47927;42.646;23.096;2023-01-25T07:04:23;3.70;;;2.10;;
61962;SDS011;47927;42.646;23.096;2023-01-25T07:06:49;5.97;;;2.65;;
61962;SDS011;47927;42.646;23.096;2023-01-25T07:09:15;3.50;;;1.75;;
61962;SDS011;47927;42.646;23.096;2023-01-25T07:11:40;3.97;;;1.98;;
61962;SDS011;47927;42.646;23.096;2023-01-25T07:14:06;3.92;;;1.70;;
61962;SDS011;47927;42.646;23.096;2023-01-25T07:16:31;8.77;;;4.32;;
61962;SDS011;47927;42.646;23.096;2023-01-25T07:19:04;8.27;;;4.38;;
61962;SDS011;47927;42.646;23.096;2023-01-25T07:21:32;9.40;;;4.55;;
61962;SDS011;47927;42.646;23.096;2023-01-25T07:23:58;11.52;;;4.50;;
61962;SDS011;47927;42.646;23.096;2023-01-25T07:26:26;3.80;;;1.98;;
61962;SDS011;47927;42.646;23.096;2023-01-25T07:28:52;6.32;;;2.33;;
61962;SDS011;47927;42.646;23.096;2023-01-25T07:31:19;5.85;;;2.92;;
61962;SDS011;47927;42.646;23.096;2023-01-25T07:33:48;7.75;;;3.88;;
61962;SDS011;47927;42.646;23.096;2023-01-25T07:36:15;3.70;;;2.17;;
61962;SDS011;47927;42.646;23.096;2023-01-25T07:38:41;3.50;;;2.03;;
61962;SDS011;47927;42.646;23.096;2023-01-25T07:41:06;5.85;;;2.88;;
61962;SDS011;47927;42.646;23.096;2023-01-25T07:43:32;3.97;;;2.53;;
61962;SDS011;47927;42.646;23.096;2023-01-25T07:46:01;5.75;;;3.30;;
61962;SDS011;47927;42.646;23.096;2023-01-25T07:48:28;6.78;;;2.72;;
61962;SDS011;47927;42.646;23.096;2023-01-25T07:50:57;6.53;;;3.13;;
61962;SDS011;47927;42.646;23.096;2023-01-25T07:53:38;8.00;;;2.83;;
61962;SDS011;47927;42.646;23.096;2023-01-25T07:56:04;5.63;;;2.70;;
61962;SDS011;47927;42.646;23.096;2023-01-25T07:58:31;5.55;;;2.38;;
61962;SDS011;47927;42.646;23.096;2023-01-25T08:00:56;6.18;;;2.47;;
61962;SDS011;47927;42.646;23.096;2023-01-25T08:03:22;5.55;;;2.33;;
61962;SDS011;47927;42.646;23.096;2023-01-25T08:05:47;5.78;;;3.00;;
61962;SDS011;47927;42.646;23.096;2023-01-25T08:08:13;4.78;;;2.63;;
61962;SDS011;47927;42.646;23.096;2023-01-25T08:10:39;4.68;;;2.25;;
61962;SDS011;47927;42.646;23.096;2023-01-25T08:13:05;4.85;;;2.67;;
61962;SDS011;47927;42.646;23.096;2023-01-25T08:15:31;5.68;;;3.42;;
61962;SDS011;47927;42.646;23.096;2023-01-25T08:18:00;6.53;;;3.60;;
61962;SDS011;47927;42.646;23.096;2023-01-25T08:20:25;4.45;;;2.45;;
61962;SDS011;47927;42.646;23.096;2023-01-25T08:22:51;4.28;;;2.00;;
61962;SDS011;47927;42.646;23.096;2023-01-25T08:25:17;6.60;;;3.58;;
61962;SDS011;47927;42.646;23.096;2023-01-25T08:27:42;6.25;;;2.58;;
61962;SDS011;47927;42.646;23.096;2023-01-25T08:30:08;4.22;;;2.22;;
61962;SDS011;47927;42.646;23.096;2023-01-25T08:32:36;3.55;;;2.15;;
61962;SDS011;47927;42.646;23.096;2023-01-25T08:35:01;7.15;;;3.80;;
61962;SDS011;47927;42.646;23.096;2023-01-25T08:37:27;6.00;;;2.35;;
61962;SDS011;47927;42.646;23.096;2023-01-25T08:39:54;6.80;;;3.65;;
61962;SDS011;47927;42.646;23.096;2023-01-25T08:42:22;6.70;;;3.17;;
61962;SDS011;47927;42.646;23.096;2023-01-25T08:44:48;7.13;;;3.28;;
61962;SDS011;47927;42.646;23.096;2023-01-25T08:47:14;5.25;;;2.65;;
61962;SDS011;47927;42.646;23.096;2023-01-25T08:49:39;5.10;;;2.65;;
61962;SDS011;47927;42.646;23.096;2023-01-25T08:52:05;6.07;;;2.75;;
61962;SDS011;47927;42.646;23.096;2023-01-25T08:54:31;6.47;;;3.00;;
61962;SDS011;47927;42.646;23.096;2023-01-25T08:56:56;4.38;;;2.60;;
61962;SDS011;47927;42.646;23.096;2023-01-25T08:59:22;4.63;;;2.42;;
61962;SDS011;47927;42.646;23.096;2023-01-25T09:01:47;5.93;;;2.92;;
61962;SDS011;47927;42.646;23.096;2023-01-25T09:04:13;5.53;;;2.97;;
61962;SDS011;47927;42.646;23.096;2023-01-25T09:06:38;3.28;;;1.83;;
61962;SDS011;47927;42.646;23.096;2023-01-25T09:09:04;5.53;;;2.70;;
61962;SDS011;47927;42.646;23.096;2023-01-25T09:11:33;5.43;;;2.90;;
61962;SDS011;47927;42.646;23.096;2023-01-25T09:13:59;5.18;;;2.72;;
61962;SDS011;47927;42.646;23.096;2023-01-25T09:16:24;7.97;;;2.83;;
61962;SDS011;47927;42.646;23.096;2023-01-25T09:18:58;6.00;;;3.00;;
61962;SDS011;47927;42.646;23.096;2023-01-25T09:21:25;5.63;;;2.80;;
61962;SDS011;47927;42.646;23.096;2023-01-25T09:23:51;6.30;;;2.90;;
61962;SDS011;47927;42.646;23.096;2023-01-25T09:26:18;5.32;;;3.03;;
61962;SDS011;47927;42.646;23.096;2023-01-25T09:28:48;5.45;;;2.83;;
61962;SDS011;47927;42.646;23.096;2023-01-25T09:31:15;6.13;;;3.33;;
61962;SDS011;47927;42.646;23.096;2023-01-25T09:34:01;4.20;;;2.25;;
61962;SDS011;47927;42.646;23.096;2023-01-25T09:36:26;5.03;;;2.92;;
61962;SDS011;47927;42.646;23.096;2023-01-25T09:38:52;5.25;;;2.92;;
61962;SDS011;47927;42.646;23.096;2023-01-25T09:46:35;6.57;;;2.92;;
61962;SDS011;47927;42.646;23.096;2023-01-25T09:52:05;8.95;;;3.53;;
61962;SDS011;47927;42.646;23.096;2023-01-25T09:54:44;5.95;;;3.60;;
61962;SDS011;47927;42.646;23.096;2023-01-25T09:57:30;8.95;;;4.13;;
61962;SDS011;47927;42.646;23.096;2023-01-25T10:00:00;7.30;;;4.18;;
61962;SDS011;47927;42.646;23.096;2023-01-25T10:02:39;7.80;;;4.47;;
61962;SDS011;47927;42.646;23.096;2023-01-25T10:05:41;5.97;;;3.38;;
61962;SDS011;47927;42.646;23.096;2023-01-25T10:10:51;6.60;;;3.55;;
61962;SDS011;47927;42.646;23.096;2023-01-25T10:13:24;8.57;;;4.15;;
61962;SDS011;47927;42.646;23.096;2023-01-25T10:15:50;7.05;;;4.03;;
61962;SDS011;47927;42.646;23.096;2023-01-25T10:21:13;9.45;;;4.75;;
61962;SDS011;47927;42.646;23.096;2023-01-25T10:26:56;9.48;;;4.32;;
61962;SDS011;47927;42.646;23.096;2023-01-25T10:29:27;7.72;;;4.47;;
61962;SDS011;47927;42.646;23.096;2023-01-25T10:32:08;7.32;;;4.20;;
61962;SDS011;47927;42.646;23.096;2023-01-25T10:34:37;5.70;;;3.40;;
61962;SDS011;47927;42.646;23.096;2023-01-25T10:37:14;7.30;;;4.15;;
61962;SDS011;47927;42.646;23.096;2023-01-25T10:40:25;8.50;;;5.20;;
61962;SDS011;47927;42.646;23.096;2023-01-25T10:42:57;6.82;;;3.60;;
61962;SDS011;47927;42.646;23.096;2023-01-25T10:45:27;6.53;;;4.32;;
61962;SDS011;47927;42.646;23.096;2023-01-25T10:48:03;7.82;;;4.18;;
61962;SDS011;47927;42.646;23.096;2023-01-25T10:56:32;7.43;;;3.40;;
61962;SDS011;47927;42.646;23.096;2023-01-25T10:58:50;5.60;;;3.45;;
61962;SDS011;47927;42.646;23.096;2023-01-25T11:01:30;7.70;;;3.70;;
61962;SDS011;47927;42.646;23.096;2023-01-25T11:03:57;6.38;;;3.60;;
61962;SDS011;47927;42.646;23.096;2023-01-25T11:11:55;6.35;;;3.97;;
61962;SDS011;47927;42.646;23.096;2023-01-25T11:14:26;5.97;;;3.55;;
61962;SDS011;47927;42.646;23.096;2023-01-25T11:16:54;6.40;;;3.10;;
61962;SDS011;47927;42.646;23.096;2023-01-25T11:21:56;7.03;;;3.75;;
61962;SDS011;47927;42.646;23.096;2023-01-25T11:24:40;7.57;;;4.00;;
61962;SDS011;47927;42.646;23.096;2023-01-25T11:27:10;5.95;;;3.50;;
61962;SDS011;47927;42.646;23.096;2023-01-25T11:32:40;5.32;;;3.33;;
61962;SDS011;47927;42.646;23.096;2023-01-25T11:35:15;7.00;;;3.95;;
61962;SDS011;47927;42.646;23.096;2023-01-25T11:37:50;6.57;;;4.35;;
61962;SDS011;47927;42.646;23.096;2023-01-25T11:40:43;6.88;;;3.92;;
61962;SDS011;47927;42.646;23.096;2023-01-25T11:48:36;6.68;;;4.00;;
61962;SDS011;47927;42.646;23.096;2023-01-25T11:51:28;7.22;;;4.00;;
61962;SDS011;47927;42.646;23.096;2023-01-25T11:56:40;6.25;;;3.58;;
61962;SDS011;47927;42.646;23.096;2023-01-25T11:59:29;6.65;;;3.97;;
61962;SDS011;47927;42.646;23.096;2023-01-25T12:07:48;7.97;;;4.50;;
61962;SDS011;47927;42.646;23.096;2023-01-25T12:13:07;7.30;;;4.35;;
61962;SDS011;47927;42.646;23.096;2023-01-25T12:29:48;5.53;;;3.45;;
61962;SDS011;47927;42.646;23.096;2023-01-25T12:32:22;6.68;;;3.45;;
61962;SDS011;47927;42.646;23.096;2023-01-25T12:35:00;3.65;;;2.28;;
61962;SDS011;47927;42.646;23.096;2023-01-25T12:37:37;5.78;;;3.15;;
61962;SDS011;47927;42.646;23.096;2023-01-25T12:43:00;4.97;;;2.97;;
61962;SDS011;47927;42.646;23.096;2023-01-25T12:45:27;6.43;;;3.95;;
61962;SDS011;47927;42.646;23.096;2023-01-25T12:47:57;3.85;;;2.38;;
61962;SDS011;47927;42.646;23.096;2023-01-25T12:50:29;7.68;;;4.63;;
61962;SDS011;47927;42.646;23.096;2023-01-25T12:55:37;6.78;;;3.63;;
61962;SDS011;47927;42.646;23.096;2023-01-25T13:00:54;7.57;;;3.60;;
61962;SDS011;47927;42.646;23.096;2023-01-25T13:06:10;10.48;;;3.00;;
61962;SDS011;47927;42.646;23.096;2023-01-25T13:08:56;7.40;;;3.22;;
61962;SDS011;47927;42.646;23.096;2023-01-25T13:11:36;7.13;;;2.90;;
61962;SDS011;47927;42.646;23.096;2023-01-25T13:16:50;4.25;;;2.35;;
61962;SDS011;47927;42.646;23.096;2023-01-25T13:22:00;5.18;;;3.83;;
61962;SDS011;47927;42.646;23.096;2023-01-25T13:24:26;5.47;;;3.63;;
61962;SDS011;47927;42.646;23.096;2023-01-25T13:32:04;5.07;;;2.90;;
61962;SDS011;47927;42.646;23.096;2023-01-25T13:39:54;9.10;;;3.30;;
61962;SDS011;47927;42.646;23.096;2023-01-25T13:42:25;4.03;;;2.35;;
61962;SDS011;47927;42.646;23.096;2023-01-25T13:44:54;6.10;;;3.20;;
61962;SDS011;47927;42.646;23.096;2023-01-25T13:47:23;4.55;;;2.50;;
61962;SDS011;47927;42.646;23.096;2023-01-25T13:52:23;4.97;;;3.03;;
61962;SDS011;47927;42.646;23.096;2023-01-25T13:54:53;14.48;;;6.55;;
61962;SDS011;47927;42.646;23.096;2023-01-25T13:57:21;8.45;;;3.28;;
61962;SDS011;47927;42.646;23.096;2023-01-25T14:00:05;5.05;;;2.92;;
61962;SDS011;47927;42.646;23.096;2023-01-25T14:02:35;7.05;;;4.47;;
61962;SDS011;47927;42.646;23.096;2023-01-25T14:05:02;3.03;;;2.08;;
61962;SDS011;47927;42.646;23.096;2023-01-25T14:07:31;7.85;;;3.15;;
61962;SDS011;47927;42.646;23.096;2023-01-25T14:10:05;6.03;;;3.17;;
61962;SDS011;47927;42.646;23.096;2023-01-25T14:12:38;7.28;;;3.17;;
61962;SDS011;47927;42.646;23.096;2023-01-25T14:18:10;5.43;;;3.00;;
61962;SDS011;47927;42.646;23.096;2023-01-25T14:20:38;4.78;;;2.80;;
61962;SDS011;47927;42.646;23.096;2023-01-25T14:23:17;8.27;;;4.00;;
61962;SDS011;47927;42.646;23.096;2023-01-25T14:25:45;9.43;;;5.28;;
61962;SDS011;47927;42.646;23.096;2023-01-25T14:28:10;9.32;;;4.40;;
61962;SDS011;47927;42.646;23.096;2023-01-25T14:30:38;8.98;;;4.53;;
61962;SDS011;47927;42.646;23.096;2023-01-25T14:35:51;6.72;;;4.00;;
61962;SDS011;47927;42.646;23.096;2023-01-25T14:38:20;6.72;;;3.60;;
61962;SDS011;47927;42.646;23.096;2023-01-25T14:40:54;5.05;;;2.67;;
61962;SDS011;47927;42.646;23.096;2023-01-25T14:43:23;4.53;;;2.83;;
61962;SDS011;47927;42.646;23.096;2023-01-25T14:45:50;8.35;;;4.70;;
61962;SDS011;47927;42.646;23.096;2023-01-25T14:51:21;5.07;;;2.78;;
61962;SDS011;47927;42.646;23.096;2023-01-25T14:53:55;6.80;;;3.70;;
61962;SDS011;47927;42.646;23.096;2023-01-25T14:56:28;9.05;;;4.03;;
61962;SDS011;47927;42.646;23.096;2023-01-25T14:58:59;8.50;;;3.92;;
61962;SDS011;47927;42.646;23.096;2023-01-25T15:01:30;6.90;;;4.15;;
61962;SDS011;47927;42.646;23.096;2023-01-25T15:03:59;5.53;;;3.38;;
61962;SDS011;47927;42.646;23.096;2023-01-25T15:06:25;3.53;;;2.58;;
61962;SDS011;47927;42.646;23.096;2023-01-25T15:08:51;7.82;;;4.13;;
61962;SDS011;47927;42.646;23.096;2023-01-25T15:11:27;9.20;;;4.50;;
61962;SDS011;47927;42.646;23.096;2023-01-25T15:14:02;9.40;;;5.22;;
61962;SDS011;47927;42.646;23.096;2023-01-25T15:16:38;10.38;;;6.22;;
61962;SDS011;47927;42.646;23.096;2023-01-25T15:19:19;4.70;;;2.95;;
61962;SDS011;47927;42.646;23.096;2023-01-25T15:21:45;8.93;;;3.80;;
61962;SDS011;47927;42.646;23.096;2023-01-25T15:24:12;5.47;;;3.15;;
61962;SDS011;47927;42.646;23.096;2023-01-25T15:26:38;6.18;;;3.38;;
61962;SDS011;47927;42.646;23.096;2023-01-25T15:29:11;8.85;;;5.20;;
61962;SDS011;47927;42.646;23.096;2023-01-25T15:31:39;8.63;;;5.82;;
61962;SDS011;47927;42.646;23.096;2023-01-25T15:34:05;10.07;;;4.35;;
61962;SDS011;47927;42.646;23.096;2023-01-25T15:36:40;9.18;;;5.22;;
61962;SDS011;47927;42.646;23.096;2023-01-25T15:39:09;5.85;;;3.72;;
61962;SDS011;47927;42.646;23.096;2023-01-25T15:41:36;6.93;;;4.30;;
61962;SDS011;47927;42.646;23.096;2023-01-25T15:44:02;4.82;;;2.83;;
61962;SDS011;47927;42.646;23.096;2023-01-25T15:46:27;6.32;;;4.05;;
61962;SDS011;47927;42.646;23.096;2023-01-25T15:48:55;5.13;;;3.05;;
61962;SDS011;47927;42.646;23.096;2023-01-25T15:51:21;5.88;;;2.58;;
61962;SDS011;47927;42.646;23.096;2023-01-25T15:53:47;7.55;;;4.35;;
61962;SDS011;47927;42.646;23.096;2023-01-25T15:56:15;6.30;;;3.88;;
61962;SDS011;47927;42.646;23.096;2023-01-25T15:58:43;5.67;;;3.73;;
61962;SDS011;47927;42.646;23.096;2023-01-25T16:01:11;7.15;;;3.90;;
61962;SDS011;47927;42.646;23.096;2023-01-25T16:03:37;7.90;;;4.72;;
61962;SDS011;47927;42.646;23.096;2023-01-25T16:08:46;7.88;;;3.55;;
61962;SDS011;47927;42.646;23.096;2023-01-25T16:11:11;6.82;;;3.53;;
61962;SDS011;47927;42.646;23.096;2023-01-25T16:13:37;4.60;;;2.47;;
61962;SDS011;47927;42.646;23.096;2023-01-25T16:16:07;6.25;;;3.63;;
61962;SDS011;47927;42.646;23.096;2023-01-25T16:18:45;7.18;;;3.95;;
61962;SDS011;47927;42.646;23.096;2023-01-25T16:21:11;8.50;;;3.70;;
61962;SDS011;47927;42.646;23.096;2023-01-25T16:23:36;8.00;;;4.20;;
61962;SDS011;47927;42.646;23.096;2023-01-25T16:26:03;4.57;;;2.45;;
61962;SDS011;47927;42.646;23.096;2023-01-25T16:28:29;6.07;;;2.60;;
61962;SDS011;47927;42.646;23.096;2023-01-25T16:30:54;3.80;;;1.90;;
61962;SDS011;47927;42.646;23.096;2023-01-25T16:40:49;13.25;;;3.30;;
61962;SDS011;47927;42.646;23.096;2023-01-25T16:43:14;7.15;;;3.80;;
61962;SDS011;47927;42.646;23.096;2023-01-25T16:45:40;5.78;;;3.47;;
61962;SDS011;47927;42.646;23.096;2023-01-25T16:48:06;4.63;;;2.72;;
61962;SDS011;47927;42.646;23.096;2023-01-25T16:50:36;5.07;;;2.58;;
61962;SDS011;47927;42.646;23.096;2023-01-25T16:53:02;5.78;;;3.28;;
61962;SDS011;47927;42.646;23.096;2023-01-25T16:55:27;6.00;;;2.50;;